Etusivu
METAR-TAF:

METAR-TAF

Lentoasemat :

Dubuque, Iowa, Yhdysvallat

Leveyspiiri: 42-23-52N, Pituuspiiri: 090-42-13W, korkeus merenpinnasta: 328 m

Tämänhetkinen sää

Tämä raportti tehtiin 32 minuuttia sitten, kello 09.53 UTC
Tuuli 7 kn etelästä/lounaasta
Lämpötila 21°C
Kosteus 94%
Ilmanpaine 1014 hPa
Näkyvyys: 14.5 km
Muutamia pilviä 8000 ft:n korkeudessa

METAR: KDBQ 080953Z AUTO 20007KT 9SM FEW080 21/20 A2994 RMK AO2 SLP129 T02060200

Aika: 05:25 (10:25 UTC)

Sääennuste

Tämä raportti tehtiin 5 tuntia ja 3 minuuttia sitten, kello 05.22 UTC
Ennuste voimassa 08. päivästä klo 06 UTC - 09. päivään klo 06 UTC
Tuuli 6 kn etelästä/lounaasta
Näkyvyys: 10 km
Hajanaisia pilviä 5000 ft:n korkeudessa

TAF: KDBQ 080522Z 0806/0906 21006KT P6SM SCT050

Säähavainnot ja -ennusteet yli 4000 lentoasemalta (METAR- ja TAF-raportit).

Käytössä olevat sääasemat on merkitty karttaan keltaisilla ja punaisilla pisteillä.

Aseta hiiri pisteen päälle nähdäksesi sääaseman nimen.

Klikkaa sitten nähdäksesi säähavainnot ja -ennusteet.

Kartan vaihtaminen: klikkaa mustalla rastilla varustettuja vihreitä pisteitä, niin voit zoomata sisään; viivalla varustettua vihreää pistettä, niin voit zoomata ulos tai vihreitä nuolia, niin pääset viereisille kartoille.


METAR-TAF: